sensor_id;sensor_type;location;lat;lon;timestamp;pressure;altitude;pressure_sealevel;temperature;humidity
14041;BME280;7095;51.388;6.196;2023-09-19T00:00:47;64239.69;;;-145.32;100.00
14041;BME280;7095;51.388;6.196;2023-09-19T00:03:16;64840.03;;;-145.32;100.00
14041;BME280;7095;51.388;6.196;2023-09-19T00:05:47;65227.03;;;-145.32;100.00
14041;BME280;7095;51.388;6.196;2023-09-19T00:08:17;65205.09;;;-145.32;100.00
14041;BME280;7095;51.388;6.196;2023-09-19T00:10:50;65252.97;;;-145.32;100.00
14041;BME280;7095;51.388;6.196;2023-09-19T00:13:20;65927.31;;;-145.32;100.00
14041;BME280;7095;51.388;6.196;2023-09-19T00:15:49;65548.22;;;-145.32;100.00
14041;BME280;7095;51.388;6.196;2023-09-19T00:18:19;65815.59;;;-145.32;100.00
14041;BME280;7095;51.388;6.196;2023-09-19T00:20:49;65773.69;;;-145.32;100.00
14041;BME280;7095;51.388;6.196;2023-09-19T00:23:19;65504.34;;;-145.32;100.00
14041;BME280;7095;51.388;6.196;2023-09-19T00:25:50;65931.31;;;-145.32;100.00
14041;BME280;7095;51.388;6.196;2023-09-19T00:28:19;66617.78;;;-145.32;100.00
14041;BME280;7095;51.388;6.196;2023-09-19T00:30:48;66737.53;;;-145.32;100.00
14041;BME280;7095;51.388;6.196;2023-09-19T00:33:18;67088.81;;;-145.32;100.00
14041;BME280;7095;51.388;6.196;2023-09-19T00:35:47;67797.47;;;-145.32;100.00
14041;BME280;7095;51.388;6.196;2023-09-19T00:38:16;67795.47;;;-145.32;100.00
14041;BME280;7095;51.388;6.196;2023-09-19T00:40:50;68674.03;;;-145.32;100.00
14041;BME280;7095;51.388;6.196;2023-09-19T00:43:19;69512.84;;;-145.32;100.00
14041;BME280;7095;51.388;6.196;2023-09-19T00:45:50;70771.47;;;-145.32;100.00
14041;BME280;7095;51.388;6.196;2023-09-19T00:48:21;71442.94;;;-145.32;100.00
14041;BME280;7095;51.388;6.196;2023-09-19T00:50:50;71930.59;;;-145.32;100.00
14041;BME280;7095;51.388;6.196;2023-09-19T00:53:22;72210.47;;;-145.32;100.00
14041;BME280;7095;51.388;6.196;2023-09-19T00:55:55;71954.59;;;-145.32;100.00
14041;BME280;7095;51.388;6.196;2023-09-19T00:58:24;71287.03;;;-145.32;100.00
14041;BME280;7095;51.388;6.196;2023-09-19T01:00:53;71638.78;;;-145.32;100.00
14041;BME280;7095;51.388;6.196;2023-09-19T01:03:23;72210.47;;;-145.32;100.00
14041;BME280;7095;51.388;6.196;2023-09-19T01:05:51;72466.34;;;-145.32;100.00
14041;BME280;7095;51.388;6.196;2023-09-19T01:08:20;72210.47;;;-145.32;100.00
14041;BME280;7095;51.388;6.196;2023-09-19T01:10:59;71103.19;;;-145.32;100.00
14041;BME280;7095;51.388;6.196;2023-09-19T01:13:38;70905.34;;;-145.32;100.00
14041;BME280;7095;51.388;6.196;2023-09-19T01:16:13;70523.72;;;-145.32;100.00
14041;BME280;7095;51.388;6.196;2023-09-19T01:18:55;70853.41;;;-145.32;100.00
14041;BME280;7095;51.388;6.196;2023-09-19T01:21:37;69095.41;;;-145.32;100.00
14041;BME280;7095;51.388;6.196;2023-09-19T01:24:41;67623.78;;;-145.32;100.00
14041;BME280;7095;51.388;6.196;2023-09-19T01:27:51;66657.69;;;-145.32;100.00
14041;BME280;7095;51.388;6.196;2023-09-19T01:30:26;67380.25;;;-145.32;100.00
14041;BME280;7095;51.388;6.196;2023-09-19T01:33:02;66753.50;;;-145.32;100.00
14041;BME280;7095;51.388;6.196;2023-09-19T01:35:33;67052.88;;;-145.32;100.00
14041;BME280;7095;51.388;6.196;2023-09-19T01:38:06;66202.69;;;-145.32;100.00
14041;BME280;7095;51.388;6.196;2023-09-19T01:40:42;66192.72;;;-145.32;100.00
14041;BME280;7095;51.388;6.196;2023-09-19T01:43:17;64650.53;;;-145.32;100.00
14041;BME280;7095;51.388;6.196;2023-09-19T01:45:58;64794.16;;;-145.32;100.00
14041;BME280;7095;51.388;6.196;2023-09-19T01:48:34;64726.34;;;-145.32;100.00
14041;BME280;7095;51.388;6.196;2023-09-19T01:51:06;65009.59;;;-145.32;100.00
14041;BME280;7095;51.388;6.196;2023-09-19T01:53:47;65384.63;;;-145.32;100.00
14041;BME280;7095;51.388;6.196;2023-09-19T01:56:24;65743.75;;;-145.32;100.00
14041;BME280;7095;51.388;6.196;2023-09-19T01:58:56;65815.59;;;-145.32;100.00
14041;BME280;7095;51.388;6.196;2023-09-19T02:01:29;65304.84;;;-145.32;100.00
14041;BME280;7095;51.388;6.196;2023-09-19T02:03:59;65630.03;;;-145.32;100.00
14041;BME280;7095;51.388;6.196;2023-09-19T02:06:27;65464.44;;;-145.32;100.00
14041;BME280;7095;51.388;6.196;2023-09-19T02:08:56;65596.13;;;-145.32;100.00
14041;BME280;7095;51.388;6.196;2023-09-19T02:11:26;65474.41;;;-145.32;100.00
14041;BME280;7095;51.388;6.196;2023-09-19T02:13:55;64945.75;;;-145.32;100.00
14041;BME280;7095;51.388;6.196;2023-09-19T02:16:25;64104.06;;;-145.32;100.00
14041;BME280;7095;51.388;6.196;2023-09-19T02:18:55;63493.88;;;-145.32;100.00
14041;BME280;7095;51.388;6.196;2023-09-19T02:21:23;63250.63;;;-145.32;100.00
14041;BME280;7095;51.388;6.196;2023-09-19T02:23:52;62736.28;;;-145.32;100.00
14041;BME280;7095;51.388;6.196;2023-09-19T02:26:20;62048.59;;;-145.32;100.00
14041;BME280;7095;51.388;6.196;2023-09-19T02:28:51;61448.72;;;-145.32;100.00
14041;BME280;7095;51.388;6.196;2023-09-19T02:31:20;60755.34;;;-145.32;100.00
14041;BME280;7095;51.388;6.196;2023-09-19T02:33:48;60926.69;;;-145.32;100.00
14041;BME280;7095;51.388;6.196;2023-09-19T02:36:18;60484.38;;;-145.32;100.00
14041;BME280;7095;51.388;6.196;2023-09-19T02:38:46;59460.56;;;-145.32;100.00
14041;BME280;7095;51.388;6.196;2023-09-19T02:41:15;58839.25;;;-145.32;100.00
14041;BME280;7095;51.388;6.196;2023-09-19T02:43:43;58317.59;;;-145.32;100.00
14041;BME280;7095;51.388;6.196;2023-09-19T02:46:12;58259.88;;;-145.32;100.00
14041;BME280;7095;51.388;6.196;2023-09-19T02:48:41;58050.84;;;-145.32;100.00
14041;BME280;7095;51.388;6.196;2023-09-19T02:51:09;57931.41;;;-145.32;100.00
14041;BME280;7095;51.388;6.196;2023-09-19T02:53:39;57867.69;;;-145.32;100.00
14041;BME280;7095;51.388;6.196;2023-09-19T02:56:09;57804.00;;;-145.32;100.00
14041;BME280;7095;51.388;6.196;2023-09-19T02:58:41;57923.44;;;-145.32;100.00
14041;BME280;7095;51.388;6.196;2023-09-19T03:01:10;57843.81;;;-145.32;100.00
14041;BME280;7095;51.388;6.196;2023-09-19T03:03:40;57871.69;;;-145.32;100.00
14041;BME280;7095;51.388;6.196;2023-09-19T03:06:09;57963.25;;;-145.32;100.00
14041;BME280;7095;51.388;6.196;2023-09-19T03:08:42;58090.66;;;-145.32;100.00
14041;BME280;7095;51.388;6.196;2023-09-19T03:11:11;58243.94;;;-145.32;100.00
14041;BME280;7095;51.388;6.196;2023-09-19T03:13:43;58228.03;;;-145.32;100.00
14041;BME280;7095;51.388;6.196;2023-09-19T03:16:13;58261.88;;;-145.32;100.00
14041;BME280;7095;51.388;6.196;2023-09-19T03:18:42;58214.09;;;-145.32;100.00
14041;BME280;7095;51.388;6.196;2023-09-19T03:21:12;58357.44;;;-145.32;100.00
14041;BME280;7095;51.388;6.196;2023-09-19T03:23:43;58243.94;;;-145.32;100.00
14041;BME280;7095;51.388;6.196;2023-09-19T03:26:13;58040.88;;;-145.32;100.00
14041;BME280;7095;51.388;6.196;2023-09-19T03:28:43;58226.03;;;-145.32;100.00
14041;BME280;7095;51.388;6.196;2023-09-19T03:31:13;57911.50;;;-145.32;100.00
14041;BME280;7095;51.388;6.196;2023-09-19T03:33:42;58108.56;;;-145.32;100.00
14041;BME280;7095;51.388;6.196;2023-09-19T03:36:10;58020.97;;;-145.32;100.00
14041;BME280;7095;51.388;6.196;2023-09-19T03:38:43;58212.09;;;-145.32;100.00
14041;BME280;7095;51.388;6.196;2023-09-19T03:41:12;58283.75;;;-145.32;100.00
14041;BME280;7095;51.388;6.196;2023-09-19T03:43:42;58385.31;;;-145.32;100.00
14041;BME280;7095;51.388;6.196;2023-09-19T03:46:10;58498.78;;;-145.32;100.00
14041;BME280;7095;51.388;6.196;2023-09-19T03:48:40;58588.38;;;-145.32;100.00
14041;BME280;7095;51.388;6.196;2023-09-19T03:51:09;58691.91;;;-145.32;100.00
14041;BME280;7095;51.388;6.196;2023-09-19T03:53:38;58691.91;;;-145.32;100.00
14041;BME280;7095;51.388;6.196;2023-09-19T03:56:08;58815.38;;;-145.32;100.00
14041;BME280;7095;51.388;6.196;2023-09-19T03:58:37;59002.53;;;-145.32;100.00
14041;BME280;7095;51.388;6.196;2023-09-19T04:01:06;59221.59;;;-145.32;100.00
14041;BME280;7095;51.388;6.196;2023-09-19T04:03:35;59524.31;;;-145.32;100.00
14041;BME280;7095;51.388;6.196;2023-09-19T04:06:16;59629.84;;;-145.32;100.00
14041;BME280;7095;51.388;6.196;2023-09-19T04:08:44;59932.59;;;-145.32;100.00
14041;BME280;7095;51.388;6.196;2023-09-19T04:11:15;60022.25;;;-145.32;100.00
14041;BME280;7095;51.388;6.196;2023-09-19T04:13:45;60219.44;;;-145.32;100.00
14041;BME280;7095;51.388;6.196;2023-09-19T04:16:15;60687.59;;;-145.32;100.00
14041;BME280;7095;51.388;6.196;2023-09-19T04:18:43;60823.06;;;-145.32;100.00
14041;BME280;7095;51.388;6.196;2023-09-19T04:21:12;61171.75;;;-145.32;100.00
14041;BME280;7095;51.388;6.196;2023-09-19T04:23:40;61289.31;;;-145.32;100.00
14041;BME280;7095;51.388;6.196;2023-09-19T04:26:09;61291.31;;;-145.32;100.00
14041;BME280;7095;51.388;6.196;2023-09-19T04:28:40;61173.75;;;-145.32;100.00
14041;BME280;7095;51.388;6.196;2023-09-19T04:31:11;61382.97;;;-145.32;100.00
14041;BME280;7095;51.388;6.196;2023-09-19T04:33:41;61424.81;;;-145.32;100.00
14041;BME280;7095;51.388;6.196;2023-09-19T04:36:10;61074.13;;;-145.32;100.00
14041;BME280;7095;51.388;6.196;2023-09-19T04:39:00;60683.59;;;-145.32;100.00
14041;BME280;7095;51.388;6.196;2023-09-19T04:41:32;60440.56;;;-145.32;100.00
14041;BME280;7095;51.388;6.196;2023-09-19T04:44:02;60259.28;;;-145.32;100.00
14041;BME280;7095;51.388;6.196;2023-09-19T04:46:31;59906.72;;;-145.32;100.00
14041;BME280;7095;51.388;6.196;2023-09-19T04:49:00;59568.13;;;-145.32;100.00
14041;BME280;7095;51.388;6.196;2023-09-19T04:51:28;59791.19;;;-145.32;100.00
14041;BME280;7095;51.388;6.196;2023-09-19T04:54:01;59673.69;;;-145.32;100.00
14041;BME280;7095;51.388;6.196;2023-09-19T04:56:30;59669.69;;;-145.32;100.00
14041;BME280;7095;51.388;6.196;2023-09-19T04:58:59;59733.44;;;-145.32;100.00
14041;BME280;7095;51.388;6.196;2023-09-19T05:01:29;59811.09;;;-145.32;100.00
14041;BME280;7095;51.388;6.196;2023-09-19T05:03:57;59753.34;;;-145.32;100.00
14041;BME280;7095;51.388;6.196;2023-09-19T05:06:25;59366.97;;;-145.32;100.00
14041;BME280;7095;51.388;6.196;2023-09-19T05:08:54;59448.63;;;-145.32;100.00
14041;BME280;7095;51.388;6.196;2023-09-19T05:11:23;59586.03;;;-145.32;100.00
14041;BME280;7095;51.388;6.196;2023-09-19T05:13:51;59490.44;;;-145.32;100.00
14041;BME280;7095;51.388;6.196;2023-09-19T05:16:20;59287.31;;;-145.32;100.00
14041;BME280;7095;51.388;6.196;2023-09-19T05:18:50;59110.06;;;-145.32;100.00
14041;BME280;7095;51.388;6.196;2023-09-19T05:21:19;58819.34;;;-145.32;100.00
14041;BME280;7095;51.388;6.196;2023-09-19T05:23:47;58500.78;;;-145.32;100.00
14041;BME280;7095;51.388;6.196;2023-09-19T05:26:17;57806.00;;;-145.32;100.00
14041;BME280;7095;51.388;6.196;2023-09-19T05:28:45;58058.81;;;-145.32;100.00
14041;BME280;7095;51.388;6.196;2023-09-19T05:31:15;58152.38;;;-145.32;100.00
14041;BME280;7095;51.388;6.196;2023-09-19T05:33:44;57973.19;;;-145.32;100.00
14041;BME280;7095;51.388;6.196;2023-09-19T05:36:14;57877.66;;;-145.32;100.00
14041;BME280;7095;51.388;6.196;2023-09-19T05:38:43;58052.84;;;-145.32;100.00
14041;BME280;7095;51.388;6.196;2023-09-19T05:41:12;58078.72;;;-145.32;100.00
14041;BME280;7095;51.388;6.196;2023-09-19T05:43:41;57706.47;;;-145.32;100.00
14041;BME280;7095;51.388;6.196;2023-09-19T05:46:10;57254.63;;;-145.32;100.00
14041;BME280;7095;51.388;6.196;2023-09-19T05:48:39;57216.81;;;-145.32;100.00
14041;BME280;7095;51.388;6.196;2023-09-19T05:51:08;57051.63;;;-145.32;100.00
14041;BME280;7095;51.388;6.196;2023-09-19T05:53:38;56806.88;;;-145.32;100.00
14041;BME280;7095;51.388;6.196;2023-09-19T05:56:10;56836.72;;;-145.32;100.00
14041;BME280;7095;51.388;6.196;2023-09-19T05:58:41;56852.63;;;-145.32;100.00
14041;BME280;7095;51.388;6.196;2023-09-19T06:01:16;56824.78;;;-145.32;100.00
14041;BME280;7095;51.388;6.196;2023-09-19T06:03:46;57001.88;;;-145.32;100.00
14041;BME280;7095;51.388;6.196;2023-09-19T06:06:16;56940.19;;;-145.32;100.00
14041;BME280;7095;51.388;6.196;2023-09-19T06:08:48;57037.72;;;-145.32;100.00
14041;BME280;7095;51.388;6.196;2023-09-19T06:11:17;57083.47;;;-145.32;100.00
14041;BME280;7095;51.388;6.196;2023-09-19T06:13:47;57286.50;;;-145.32;100.00
14041;BME280;7095;51.388;6.196;2023-09-19T06:16:16;57435.75;;;-145.32;100.00
14041;BME280;7095;51.388;6.196;2023-09-19T06:18:45;57692.53;;;-145.32;100.00
14041;BME280;7095;51.388;6.196;2023-09-19T06:21:13;57806.00;;;-145.32;100.00
14041;BME280;7095;51.388;6.196;2023-09-19T06:23:42;57851.78;;;-145.32;100.00
14041;BME280;7095;51.388;6.196;2023-09-19T06:26:12;57768.16;;;-145.32;100.00
14041;BME280;7095;51.388;6.196;2023-09-19T06:28:41;57991.13;;;-145.32;100.00
14041;BME280;7095;51.388;6.196;2023-09-19T06:31:10;58130.47;;;-145.32;100.00
14041;BME280;7095;51.388;6.196;2023-09-19T06:33:38;58120.53;;;-145.32;100.00
14041;BME280;7095;51.388;6.196;2023-09-19T06:36:08;58496.78;;;-145.32;100.00
14041;BME280;7095;51.388;6.196;2023-09-19T06:38:36;58433.09;;;-145.32;100.00
14041;BME280;7095;51.388;6.196;2023-09-19T06:41:06;58683.94;;;-145.32;100.00
14041;BME280;7095;51.388;6.196;2023-09-19T06:43:36;58476.88;;;-145.32;100.00
14041;BME280;7095;51.388;6.196;2023-09-19T06:46:06;58385.31;;;-145.32;100.00
14041;BME280;7095;51.388;6.196;2023-09-19T06:48:35;58363.41;;;-145.32;100.00
14041;BME280;7095;51.388;6.196;2023-09-19T06:51:04;58234.00;;;-145.32;100.00
14041;BME280;7095;51.388;6.196;2023-09-19T06:53:32;58148.38;;;-145.32;100.00
14041;BME280;7095;51.388;6.196;2023-09-19T06:56:03;58140.44;;;-145.32;100.00
14041;BME280;7095;51.388;6.196;2023-09-19T06:58:32;58228.03;;;-145.32;100.00
14041;BME280;7095;51.388;6.196;2023-09-19T07:01:03;58269.81;;;-145.32;100.00
14041;BME280;7095;51.388;6.196;2023-09-19T07:03:32;58019.00;;;-145.32;100.00
14041;BME280;7095;51.388;6.196;2023-09-19T07:06:01;58132.47;;;-145.32;100.00
14041;BME280;7095;51.388;6.196;2023-09-19T07:08:31;58096.63;;;-145.32;100.00
14041;BME280;7095;51.388;6.196;2023-09-19T07:11:00;57971.22;;;-145.32;100.00
14041;BME280;7095;51.388;6.196;2023-09-19T07:13:28;57807.97;;;-145.32;100.00
14041;BME280;7095;51.388;6.196;2023-09-19T07:15:58;57975.19;;;-145.32;100.00
14041;BME280;7095;51.388;6.196;2023-09-19T07:18:28;57792.06;;;-145.32;100.00
14041;BME280;7095;51.388;6.196;2023-09-19T07:20:57;57975.19;;;-145.32;100.00
14041;BME280;7095;51.388;6.196;2023-09-19T07:23:28;57694.53;;;-145.32;100.00
14041;BME280;7095;51.388;6.196;2023-09-19T07:25:57;57927.41;;;-145.32;100.00
14041;BME280;7095;51.388;6.196;2023-09-19T07:28:28;57449.69;;;-145.32;100.00
14041;BME280;7095;51.388;6.196;2023-09-19T07:30:57;57314.34;;;-145.32;100.00
14041;BME280;7095;51.388;6.196;2023-09-19T07:33:26;57163.09;;;-145.32;100.00
14041;BME280;7095;51.388;6.196;2023-09-19T07:35:59;57230.75;;;-145.32;100.00
14041;BME280;7095;51.388;6.196;2023-09-19T07:38:28;57266.59;;;-145.32;100.00
14041;BME280;7095;51.388;6.196;2023-09-19T07:41:00;57391.97;;;-145.32;100.00
14041;BME280;7095;51.388;6.196;2023-09-19T07:43:29;57334.25;;;-145.32;100.00
14041;BME280;7095;51.388;6.196;2023-09-19T07:46:03;56800.91;;;-145.32;100.00
14041;BME280;7095;51.388;6.196;2023-09-19T07:48:36;56765.06;;;-145.32;100.00
14041;BME280;7095;51.388;6.196;2023-09-19T07:51:07;56597.91;;;-145.32;100.00
14041;BME280;7095;51.388;6.196;2023-09-19T07:53:36;56259.66;;;-145.32;100.00
14041;BME280;7095;51.388;6.196;2023-09-19T07:56:06;56394.97;;;-145.32;100.00
14041;BME280;7095;51.388;6.196;2023-09-19T07:58:39;56259.66;;;-145.32;100.00
14041;BME280;7095;51.388;6.196;2023-09-19T08:01:09;56259.66;;;-145.32;100.00
14041;BME280;7095;51.388;6.196;2023-09-19T08:03:37;56192.00;;;-145.32;100.00
14041;BME280;7095;51.388;6.196;2023-09-19T08:06:09;55995.03;;;-145.32;100.00
14041;BME280;7095;51.388;6.196;2023-09-19T08:08:38;55913.47;;;-145.32;100.00
14041;BME280;7095;51.388;6.196;2023-09-19T08:11:08;55738.41;;;-145.32;100.00
14041;BME280;7095;51.388;6.196;2023-09-19T08:13:39;55941.31;;;-145.32;100.00
14041;BME280;7095;51.388;6.196;2023-09-19T08:16:11;55700.59;;;-145.32;100.00
14041;BME280;7095;51.388;6.196;2023-09-19T08:18:40;55585.22;;;-145.32;100.00
14041;BME280;7095;51.388;6.196;2023-09-19T08:21:11;55710.56;;;-145.32;100.00
14041;BME280;7095;51.388;6.196;2023-09-19T08:23:44;55654.84;;;-145.32;100.00
14041;BME280;7095;51.388;6.196;2023-09-19T08:26:13;55438.03;;;-145.32;100.00
14041;BME280;7095;51.388;6.196;2023-09-19T08:28:41;55404.19;;;-145.32;100.00
14041;BME280;7095;51.388;6.196;2023-09-19T08:31:10;55382.31;;;-145.32;100.00
14041;BME280;7095;51.388;6.196;2023-09-19T08:33:39;55260.97;;;-145.32;100.00
14041;BME280;7095;51.388;6.196;2023-09-19T08:36:10;55173.47;;;-145.32;100.00
14041;BME280;7095;51.388;6.196;2023-09-19T08:38:41;55193.34;;;-145.32;100.00
14041;BME280;7095;51.388;6.196;2023-09-19T08:41:09;55245.06;;;-145.32;100.00
14041;BME280;7095;51.388;6.196;2023-09-19T08:43:39;55260.97;;;-145.32;100.00
14041;BME280;7095;51.388;6.196;2023-09-19T08:46:10;55058.09;;;-145.32;100.00
14041;BME280;7095;51.388;6.196;2023-09-19T08:48:46;54996.44;;;-145.32;100.00
14041;BME280;7095;51.388;6.196;2023-09-19T08:51:26;54885.06;;;-145.32;100.00
14041;BME280;7095;51.388;6.196;2023-09-19T08:54:03;54887.06;;;-145.32;100.00
14041;BME280;7095;51.388;6.196;2023-09-19T08:56:32;54819.44;;;-145.32;100.00
14041;BME280;7095;51.388;6.196;2023-09-19T08:59:03;54837.34;;;-145.32;100.00
14041;BME280;7095;51.388;6.196;2023-09-19T09:01:32;55034.22;;;-145.32;100.00
14041;BME280;7095;51.388;6.196;2023-09-19T09:04:02;54902.97;;;-145.32;100.00
14041;BME280;7095;51.388;6.196;2023-09-19T09:06:33;54899.00;;;-145.32;100.00
14041;BME280;7095;51.388;6.196;2023-09-19T09:09:02;54823.41;;;-145.32;100.00
14041;BME280;7095;51.388;6.196;2023-09-19T09:11:33;54807.50;;;-145.32;100.00
14041;BME280;7095;51.388;6.196;2023-09-19T09:14:01;54795.56;;;-145.32;100.00
14041;BME280;7095;51.388;6.196;2023-09-19T09:16:33;54755.78;;;-145.32;100.00
14041;BME280;7095;51.388;6.196;2023-09-19T09:19:05;54586.75;;;-145.32;100.00
14041;BME280;7095;51.388;6.196;2023-09-19T09:21:35;54515.16;;;-145.32;100.00
14041;BME280;7095;51.388;6.196;2023-09-19T09:24:28;54525.09;;;-145.32;100.00
14041;BME280;7095;51.388;6.196;2023-09-19T09:26:58;54572.81;;;-145.32;100.00
14041;BME280;7095;51.388;6.196;2023-09-19T09:29:41;54465.44;;;-145.32;100.00
14041;BME280;7095;51.388;6.196;2023-09-19T09:32:18;54519.13;;;-145.32;100.00
14041;BME280;7095;51.388;6.196;2023-09-19T09:34:49;54429.66;;;-145.32;100.00
14041;BME280;7095;51.388;6.196;2023-09-19T09:37:19;54407.78;;;-145.32;100.00
14041;BME280;7095;51.388;6.196;2023-09-19T09:39:50;54358.06;;;-145.32;100.00
14041;BME280;7095;51.388;6.196;2023-09-19T09:42:33;54324.25;;;-145.32;100.00
14041;BME280;7095;51.388;6.196;2023-09-19T09:45:13;54246.69;;;-145.32;100.00
14041;BME280;7095;51.388;6.196;2023-09-19T09:47:42;54262.59;;;-145.32;100.00
14041;BME280;7095;51.388;6.196;2023-09-19T09:50:27;54254.66;;;-145.32;100.00
14041;BME280;7095;51.388;6.196;2023-09-19T09:53:23;54220.84;;;-145.32;100.00
14041;BME280;7095;51.388;6.196;2023-09-19T09:56:00;54155.22;;;-145.32;100.00
14041;BME280;7095;51.388;6.196;2023-09-19T09:58:29;54127.38;;;-145.32;100.00
14041;BME280;7095;51.388;6.196;2023-09-19T10:01:00;54033.94;;;-145.32;100.00
14041;BME280;7095;51.388;6.196;2023-09-19T10:03:39;53968.31;;;-145.32;100.00
14041;BME280;7095;51.388;6.196;2023-09-19T10:06:10;53908.66;;;-145.32;100.00
14041;BME280;7095;51.388;6.196;2023-09-19T10:09:06;53908.66;;;-145.32;100.00
14041;BME280;7095;51.388;6.196;2023-09-19T10:11:44;53910.66;;;-145.32;100.00
14041;BME280;7095;51.388;6.196;2023-09-19T10:14:15;53860.94;;;-145.32;100.00
14041;BME280;7095;51.388;6.196;2023-09-19T10:16:46;53862.94;;;-145.32;100.00
14041;BME280;7095;51.388;6.196;2023-09-19T10:19:18;53854.97;;;-145.32;100.00
14041;BME280;7095;51.388;6.196;2023-09-19T10:21:54;53841.06;;;-145.32;100.00
14041;BME280;7095;51.388;6.196;2023-09-19T10:24:26;53793.34;;;-145.32;100.00
14041;BME280;7095;51.388;6.196;2023-09-19T10:26:59;53773.47;;;-145.32;100.00
14041;BME280;7095;51.388;6.196;2023-09-19T10:29:29;53819.19;;;-145.32;100.00
14041;BME280;7095;51.388;6.196;2023-09-19T10:32:03;53801.31;;;-145.32;100.00
14041;BME280;7095;51.388;6.196;2023-09-19T10:34:34;53767.50;;;-145.32;100.00
14041;BME280;7095;51.388;6.196;2023-09-19T10:37:04;53789.38;;;-145.32;100.00
14041;BME280;7095;51.388;6.196;2023-09-19T10:39:39;53761.53;;;-145.32;100.00
14041;BME280;7095;51.388;6.196;2023-09-19T10:42:11;53823.16;;;-145.32;100.00
14041;BME280;7095;51.388;6.196;2023-09-19T10:44:45;53805.28;;;-145.32;100.00
14041;BME280;7095;51.388;6.196;2023-09-19T10:47:14;53773.47;;;-145.32;100.00
14041;BME280;7095;51.388;6.196;2023-09-19T10:49:43;53761.53;;;-145.32;100.00
14041;BME280;7095;51.388;6.196;2023-09-19T10:52:22;53733.69;;;-145.32;100.00
14041;BME280;7095;51.388;6.196;2023-09-19T10:54:57;53733.69;;;-145.32;100.00
14041;BME280;7095;51.388;6.196;2023-09-19T10:57:30;53761.53;;;-145.32;100.00
14041;BME280;7095;51.388;6.196;2023-09-19T11:00:03;53767.50;;;-145.32;100.00
14041;BME280;7095;51.388;6.196;2023-09-19T11:03:17;53749.59;;;-145.32;100.00
14041;BME280;7095;51.388;6.196;2023-09-19T11:06:11;53693.94;;;-145.32;100.00
14041;BME280;7095;51.388;6.196;2023-09-19T11:08:59;53636.28;;;-145.32;100.00
14041;BME280;7095;51.388;6.196;2023-09-19T11:11:51;53664.13;;;-145.32;100.00
14041;BME280;7095;51.388;6.196;2023-09-19T11:14:43;53652.19;;;-145.32;100.00
14041;BME280;7095;51.388;6.196;2023-09-19T11:17:31;53622.38;;;-145.32;100.00
14041;BME280;7095;51.388;6.196;2023-09-19T11:20:22;53622.38;;;-145.32;100.00
14041;BME280;7095;51.388;6.196;2023-09-19T11:23:18;53574.66;;;-145.32;100.00
14041;BME280;7095;51.388;6.196;2023-09-19T11:25:50;53596.53;;;-145.32;100.00
14041;BME280;7095;51.388;6.196;2023-09-19T11:28:34;53576.63;;;-145.32;100.00
14041;BME280;7095;51.388;6.196;2023-09-19T11:34:48;53522.97;;;-145.32;100.00
14041;BME280;7095;51.388;6.196;2023-09-19T11:40:45;53534.88;;;-145.32;100.00
14041;BME280;7095;51.388;6.196;2023-09-19T11:43:29;53503.06;;;-145.32;100.00
14041;BME280;7095;51.388;6.196;2023-09-19T11:46:12;53505.06;;;-145.32;100.00
14041;BME280;7095;51.388;6.196;2023-09-19T11:48:44;53515.00;;;-145.32;100.00
14041;BME280;7095;51.388;6.196;2023-09-19T11:51:16;53511.03;;;-145.32;100.00
14041;BME280;7095;51.388;6.196;2023-09-19T11:53:50;53489.16;;;-145.32;100.00
14041;BME280;7095;51.388;6.196;2023-09-19T11:56:20;53487.19;;;-145.32;100.00
14041;BME280;7095;51.388;6.196;2023-09-19T11:58:52;53495.13;;;-145.32;99.90
14041;BME280;7095;51.388;6.196;2023-09-19T12:01:26;53441.44;;;-145.32;88.74
14041;BME280;7095;51.388;6.196;2023-09-19T12:04:03;53475.25;;;-145.32;91.00
14041;BME280;7095;51.388;6.196;2023-09-19T12:06:36;53471.28;;;-145.32;93.70
14041;BME280;7095;51.388;6.196;2023-09-19T12:09:12;53467.28;;;-145.32;92.39
14041;BME280;7095;51.388;6.196;2023-09-19T12:11:44;53439.47;;;-145.32;87.85
14041;BME280;7095;51.388;6.196;2023-09-19T12:14:21;53427.53;;;-145.32;85.07
14041;BME280;7095;51.388;6.196;2023-09-19T12:16:55;53441.44;;;-145.32;88.10
14041;BME280;7095;51.388;6.196;2023-09-19T12:19:23;53443.44;;;-145.32;83.96
14041;BME280;7095;51.388;6.196;2023-09-19T12:21:58;53431.50;;;-145.32;83.99
14041;BME280;7095;51.388;6.196;2023-09-19T12:24:32;53459.34;;;-145.32;82.54
14041;BME280;7095;51.388;6.196;2023-09-19T12:27:06;53419.59;;;-145.32;79.49
14041;BME280;7095;51.388;6.196;2023-09-19T12:29:45;53393.75;;;-145.32;72.22
14041;BME280;7095;51.388;6.196;2023-09-19T12:32:17;53401.69;;;-145.32;73.84
14041;BME280;7095;51.388;6.196;2023-09-19T12:34:52;53425.53;;;-145.32;74.57
14041;BME280;7095;51.388;6.196;2023-09-19T12:37:22;53409.63;;;-145.32;75.72
14041;BME280;7095;51.388;6.196;2023-09-19T12:40:04;53411.63;;;-145.32;73.25
14041;BME280;7095;51.388;6.196;2023-09-19T12:42:43;53409.63;;;-145.32;77.16
14041;BME280;7095;51.388;6.196;2023-09-19T12:45:16;53391.75;;;-145.32;77.37
14041;BME280;7095;51.388;6.196;2023-09-19T12:48:22;53393.75;;;-145.32;75.72
14041;BME280;7095;51.388;6.196;2023-09-19T12:51:01;53405.66;;;-145.32;77.23
14041;BME280;7095;51.388;6.196;2023-09-19T12:53:34;53415.59;;;-145.32;79.04
14041;BME280;7095;51.388;6.196;2023-09-19T12:56:08;53373.84;;;-145.32;75.67
14041;BME280;7095;51.388;6.196;2023-09-19T12:58:48;53379.81;;;-145.32;73.33
14041;BME280;7095;51.388;6.196;2023-09-19T13:01:17;53409.63;;;-145.32;78.45
14041;BME280;7095;51.388;6.196;2023-09-19T13:04:10;53421.56;;;-145.32;81.64
14041;BME280;7095;51.388;6.196;2023-09-19T13:06:42;53399.69;;;-145.32;84.23
14041;BME280;7095;51.388;6.196;2023-09-19T13:09:11;53411.63;;;-145.32;86.75
14041;BME280;7095;51.388;6.196;2023-09-19T13:11:41;53433.50;;;-145.32;85.19
14041;BME280;7095;51.388;6.196;2023-09-19T13:14:17;53399.69;;;-145.32;82.18